Time;durP1;ratioP1;P1;durP2;ratioP2;P2;SDS_P1;SDS_P2;PMS_P1;PMS_P2;Temp;Humidity;BMP_temperature;BMP_pressure;BME280_temperature;BME280_humidity;BME280_pressure;Samples;Min_cycle;Max_cycle;Signal;HPM_P1;HPM_P2
2024/01/25 00:02:06;;;;;;;;;;;;;;;7.50;60.64;99409.75;4361098;32;33796;-86
2024/01/25 00:04:34;;;;;;;;;;;;;;;7.95;58.98;99400.66;4361131;32;36083;-88
2024/01/25 00:07:01;;;;;;;;;;;;;;;7.66;59.94;99393.00;4360743;32;32274;-86
2024/01/25 00:09:29;;;;;;;;;;;;;;;7.66;59.87;99384.37;4367452;32;32212;-88
2024/01/25 00:11:56;;;;;;;;;;;;;;;7.98;58.59;99393.88;4363592;32;34046;-87
2024/01/25 00:14:24;;;;;;;;;;;;;;;7.49;59.56;99391.63;4361219;32;35349;-87
2024/01/25 00:16:53;;;;;;;;;;;;;;;7.48;59.49;99380.44;4376957;32;33284;-88
2024/01/25 00:19:21;;;;;;;;;;;;;;;7.54;59.43;99382.34;4388539;32;33427;-88
2024/01/25 00:21:48;;;;;;;;;;;;;;;7.78;58.87;99387.31;4375640;32;34883;-88
2024/01/25 00:24:15;;;;;;;;;;;;;;;7.78;58.58;99374.41;4375213;32;34416;-87
2024/01/25 00:26:43;;;;;;;;;;;;;;;7.97;57.83;99366.31;4375894;32;34222;-92
2024/01/25 00:29:10;;;;;;;;;;;;;;;8.06;57.91;99370.81;4375659;32;33462;-91
2024/01/25 00:31:37;;;;;;;;;;;;;;;7.80;58.20;99367.56;4374144;32;34016;-88
2024/01/25 00:34:05;;;;;;;;;;;;;;;8.01;57.72;99372.44;4375454;32;35249;-88
2024/01/25 00:36:32;;;;;;;;;;;;;;;7.87;57.92;99356.56;4375180;32;34314;-88
2024/01/25 00:39:00;;;;;;;;;;;;;;;7.94;57.91;99370.50;4372900;32;32645;-87
2024/01/25 00:41:27;;;;;;;;;;;;;;;7.94;57.54;99376.53;4374378;32;35047;-86
2024/01/25 00:43:55;;;;;;;;;;;;;;;8.10;56.87;99369.19;4373537;32;33889;-87
2024/01/25 00:46:22;;;;;;;;;;;;;;;7.87;57.30;99376.34;4374492;32;34299;-89
2024/01/25 00:48:49;;;;;;;;;;;;;;;7.98;56.66;99377.50;4374972;32;33361;-90
2024/01/25 00:51:19;;;;;;;;;;;;;;;8.16;56.69;99374.53;4374824;32;33844;-87
2024/01/25 00:53:47;;;;;;;;;;;;;;;8.00;57.17;99383.59;4346810;32;33834;-88
2024/01/25 00:56:14;;;;;;;;;;;;;;;8.09;56.95;99385.53;4371478;32;35211;-84
2024/01/25 00:58:42;;;;;;;;;;;;;;;7.99;56.51;99374.97;4373639;32;33280;-88
2024/01/25 01:01:10;;;;;;;;;;;;;;;7.91;56.57;99385.91;4374174;32;33638;-90
2024/01/25 01:03:37;;;;;;;;;;;;;;;8.00;56.32;99391.34;4366397;32;34505;-86
2024/01/25 01:06:05;;;;;;;;;;;;;;;8.09;56.46;99391.56;4374285;32;34723;-88
2024/01/25 01:08:32;;;;;;;;;;;;;;;8.27;55.62;99397.22;4357748;32;33391;-88
2024/01/25 01:11:00;;;;;;;;;;;;;;;8.07;56.14;99382.03;4367816;32;33864;-87
2024/01/25 01:13:27;;;;;;;;;;;;;;;8.00;56.82;99386.19;4360320;32;34086;-86
2024/01/25 01:15:54;;;;;;;;;;;;;;;7.95;56.53;99386.03;4360159;32;33523;-87
2024/01/25 01:18:22;;;;;;;;;;;;;;;8.20;56.32;99394.44;4360114;32;33763;-86
2024/01/25 01:20:49;;;;;;;;;;;;;;;8.09;56.07;99389.00;4357684;32;33599;-90
2024/01/25 01:23:16;;;;;;;;;;;;;;;8.25;55.80;99395.41;4374159;32;34342;-88
2024/01/25 01:25:44;;;;;;;;;;;;;;;7.88;56.77;99385.81;4374059;32;34025;-87
2024/01/25 01:28:11;;;;;;;;;;;;;;;8.12;56.13;99383.03;4374238;32;33638;-87
2024/01/25 01:30:41;;;;;;;;;;;;;;;8.08;56.37;99387.25;4374182;32;34022;-90
2024/01/25 01:33:09;;;;;;;;;;;;;;;7.73;57.19;99381.16;4376226;32;35155;-88
2024/01/25 01:35:36;;;;;;;;;;;;;;;7.79;56.86;99373.56;4375249;32;34239;-88
2024/01/25 01:38:04;;;;;;;;;;;;;;;7.87;57.09;99374.63;4375133;32;34612;-88
2024/01/25 01:40:31;;;;;;;;;;;;;;;7.62;57.62;99380.84;4376668;32;33588;-87
2024/01/25 01:42:59;;;;;;;;;;;;;;;7.74;57.38;99377.72;4376787;32;34929;-88
2024/01/25 01:45:26;;;;;;;;;;;;;;;7.55;57.80;99361.75;4376608;32;34340;-89
2024/01/25 01:47:54;;;;;;;;;;;;;;;7.51;58.01;99361.63;4375241;32;34147;-86
2024/01/25 01:50:22;;;;;;;;;;;;;;;7.69;57.46;99364.72;4375470;32;33777;-89
2024/01/25 01:52:50;;;;;;;;;;;;;;;7.67;57.73;99365.50;4374578;32;34032;-84
2024/01/25 01:55:17;;;;;;;;;;;;;;;7.52;57.78;99353.91;4375671;32;35269;-88
2024/01/25 01:57:45;;;;;;;;;;;;;;;7.48;57.67;99348.62;4353969;32;33675;-88
2024/01/25 02:00:13;;;;;;;;;;;;;;;7.99;56.42;99358.59;4374722;32;34192;-88
2024/01/25 02:02:40;;;;;;;;;;;;;;;8.13;55.85;99357.25;4375009;32;35259;-87
2024/01/25 02:05:08;;;;;;;;;;;;;;;7.62;57.57;99347.31;4376498;32;34961;-88
2024/01/25 02:07:35;;;;;;;;;;;;;;;7.59;57.42;99354.97;4362248;32;32840;-88
2024/01/25 02:10:03;;;;;;;;;;;;;;;7.54;57.74;99343.66;4376575;32;34843;-90
2024/01/25 02:12:30;;;;;;;;;;;;;;;7.55;57.52;99350.53;4374295;32;34044;-87
2024/01/25 02:14:57;;;;;;;;;;;;;;;7.83;57.35;99346.13;4373994;32;34219;-88
2024/01/25 02:17:25;;;;;;;;;;;;;;;7.50;57.48;99332.38;4373637;32;33631;-88
2024/01/25 02:19:52;;;;;;;;;;;;;;;7.56;57.76;99331.66;4375715;32;33956;-87
2024/01/25 02:22:20;;;;;;;;;;;;;;;7.85;56.86;99313.50;4375596;32;34959;-87
2024/01/25 02:24:47;;;;;;;;;;;;;;;7.86;57.09;99329.00;4375005;32;33713;-86
2024/01/25 02:27:15;;;;;;;;;;;;;;;7.76;57.12;99324.44;4373092;32;32600;-85
2024/01/25 02:29:42;;;;;;;;;;;;;;;7.65;57.50;99300.94;4375913;32;33667;-87
2024/01/25 02:32:10;;;;;;;;;;;;;;;7.88;57.33;99305.81;4375849;32;34406;-86
2024/01/25 02:34:37;;;;;;;;;;;;;;;7.89;57.28;99303.28;4375883;32;34168;-87
2024/01/25 02:37:05;;;;;;;;;;;;;;;7.88;57.20;99303.22;4375408;32;33527;-87
2024/01/25 02:39:32;;;;;;;;;;;;;;;7.96;56.94;99304.31;4372138;32;34121;-86
2024/01/25 02:42:00;;;;;;;;;;;;;;;7.99;56.62;99299.22;4374822;32;34443;-86
2024/01/25 02:44:27;;;;;;;;;;;;;;;8.16;56.40;99300.50;4374694;32;35083;-87
2024/01/25 02:46:54;;;;;;;;;;;;;;;8.04;56.66;99295.06;4376764;32;33487;-85
2024/01/25 02:49:23;;;;;;;;;;;;;;;8.19;56.56;99315.22;4375603;32;34159;-90
2024/01/25 02:51:51;;;;;;;;;;;;;;;8.15;56.60;99309.09;4375762;32;33946;-87
2024/01/25 02:54:18;;;;;;;;;;;;;;;8.27;56.81;99324.91;4362648;32;35106;-89
2024/01/25 02:56:46;;;;;;;;;;;;;;;8.10;57.41;99320.13;4376295;32;34019;-89
2024/01/25 02:59:13;;;;;;;;;;;;;;;8.23;57.61;99319.62;4362704;32;34341;-93
2024/01/25 03:01:41;;;;;;;;;;;;;;;8.35;57.56;99316.47;4376206;32;34457;-94
2024/01/25 03:04:09;;;;;;;;;;;;;;;8.27;57.99;99319.72;4359542;32;33723;-88
2024/01/25 03:06:37;;;;;;;;;;;;;;;7.96;59.46;99315.53;4375458;32;33239;-88
2024/01/25 03:09:04;;;;;;;;;;;;;;;7.96;59.98;99317.22;4375575;32;34650;-87
2024/01/25 03:11:32;;;;;;;;;;;;;;;8.04;60.19;99324.31;4377344;32;34360;-86
2024/01/25 03:13:59;;;;;;;;;;;;;;;8.43;59.23;99328.75;4369707;32;33870;-88
2024/01/25 03:16:26;;;;;;;;;;;;;;;7.95;60.79;99326.66;4379809;32;33564;-87
2024/01/25 03:18:54;;;;;;;;;;;;;;;7.83;61.47;99338.37;4379795;32;34246;-86
2024/01/25 03:21:21;;;;;;;;;;;;;;;8.10;60.88;99328.75;4377423;32;33951;-94
2024/01/25 03:23:48;;;;;;;;;;;;;;;7.83;61.75;99343.53;4384531;32;34787;-92
2024/01/25 03:26:16;;;;;;;;;;;;;;;8.09;61.13;99344.22;4377270;32;31879;-86
2024/01/25 03:28:43;;;;;;;;;;;;;;;8.14;60.93;99329.72;4376935;32;33783;-93
2024/01/25 03:31:11;;;;;;;;;;;;;;;8.00;61.53;99331.97;4374898;32;34511;-93
2024/01/25 03:33:38;;;;;;;;;;;;;;;7.66;62.39;99333.66;4383165;32;35130;-88
2024/01/25 03:36:06;;;;;;;;;;;;;;;7.61;63.16;99334.34;4390922;32;34534;-83
2024/01/25 03:38:33;;;;;;;;;;;;;;;7.63;63.17;99330.13;4379778;32;33741;-93
2024/01/25 03:41:00;;;;;;;;;;;;;;;7.70;62.90;99335.47;4361455;32;35042;-87
2024/01/25 03:43:28;;;;;;;;;;;;;;;7.62;63.07;99326.66;4360966;32;33833;-89
2024/01/25 03:46:09;;;;;;;;;;;;;;;7.76;62.60;99325.31;4359592;32;31615;-88
2024/01/25 03:48:36;;;;;;;;;;;;;;;7.55;62.85;99309.28;4371797;32;33100;-89
2024/01/25 03:51:03;;;;;;;;;;;;;;;7.53;63.12;99329.84;4375554;32;35184;-86
2024/01/25 03:53:31;;;;;;;;;;;;;;;7.85;61.86;99329.84;4372255;32;34434;-87
2024/01/25 03:55:58;;;;;;;;;;;;;;;7.85;61.69;99336.72;4375343;32;33064;-87
2024/01/25 03:58:25;;;;;;;;;;;;;;;7.65;62.13;99326.75;4365070;32;34759;-88
2024/01/25 04:00:53;;;;;;;;;;;;;;;7.65;62.07;99324.19;4374737;32;35234;-87
2024/01/25 04:03:21;;;;;;;;;;;;;;;7.89;61.10;99330.81;4372668;32;35096;-86
2024/01/25 04:05:48;;;;;;;;;;;;;;;7.70;61.69;99330.31;4375968;32;32368;-87
2024/01/25 04:08:16;;;;;;;;;;;;;;;8.10;60.24;99323.59;4367384;32;34305;-87
2024/01/25 04:10:44;;;;;;;;;;;;;;;7.83;61.39;99340.97;4354630;32;32740;-87
2024/01/25 04:13:11;;;;;;;;;;;;;;;7.81;61.32;99333.19;4376562;32;34945;-87
2024/01/25 04:15:38;;;;;;;;;;;;;;;8.03;60.65;99339.75;4375046;32;33454;-87
2024/01/25 04:18:06;;;;;;;;;;;;;;;7.95;60.62;99336.13;4384071;32;33958;-86
2024/01/25 04:20:34;;;;;;;;;;;;;;;7.93;60.88;99323.19;4368719;32;34073;-88
2024/01/25 04:23:01;;;;;;;;;;;;;;;7.78;61.14;99328.81;4374764;32;34492;-90
2024/01/25 04:25:29;;;;;;;;;;;;;;;7.85;61.20;99322.13;4376829;32;33195;-89
2024/01/25 04:28:02;;;;;;;;;;;;;;;7.99;60.80;99328.50;4374905;32;33347;-90
2024/01/25 04:30:31;;;;;;;;;;;;;;;7.90;60.79;99324.81;4374088;32;34535;-85
2024/01/25 04:32:59;;;;;;;;;;;;;;;7.71;61.50;99329.47;4374529;32;34245;-92
2024/01/25 04:35:27;;;;;;;;;;;;;;;8.01;60.79;99331.13;4361208;32;33291;-89
2024/01/25 04:37:54;;;;;;;;;;;;;;;7.72;61.71;99328.63;4360555;32;34944;-88
2024/01/25 04:40:22;;;;;;;;;;;;;;;7.91;61.03;99324.84;4373557;32;34422;-88
2024/01/25 04:42:49;;;;;;;;;;;;;;;7.89;61.01;99329.09;4374249;32;33966;-87
2024/01/25 04:45:17;;;;;;;;;;;;;;;8.20;60.11;99345.37;4374478;32;33632;-88
2024/01/25 04:47:44;;;;;;;;;;;;;;;7.77;61.40;99350.31;4374100;32;33914;-88
2024/01/25 04:50:11;;;;;;;;;;;;;;;8.33;59.85;99364.62;4374102;32;35254;-88
2024/01/25 04:52:39;;;;;;;;;;;;;;;8.07;60.47;99370.03;4373869;32;34408;-88
2024/01/25 04:55:06;;;;;;;;;;;;;;;7.78;61.37;99382.13;4376934;32;33381;-88
2024/01/25 04:57:33;;;;;;;;;;;;;;;7.82;61.35;99365.03;4374445;32;34946;-87
2024/01/25 05:00:01;;;;;;;;;;;;;;;7.94;60.86;99380.84;4373763;32;35158;-86
2024/01/25 05:02:28;;;;;;;;;;;;;;;8.11;60.44;99384.75;4374963;32;33130;-92
2024/01/25 05:04:55;;;;;;;;;;;;;;;7.76;61.30;99388.94;4373211;32;33603;-89
2024/01/25 05:07:23;;;;;;;;;;;;;;;7.83;61.23;99390.00;4375396;32;34052;-90
2024/01/25 05:09:56;;;;;;;;;;;;;;;7.65;61.78;99380.94;4375576;32;35083;-88
2024/01/25 05:12:24;;;;;;;;;;;;;;;7.67;61.55;99376.69;4377789;32;34380;-88
2024/01/25 05:14:51;;;;;;;;;;;;;;;7.97;60.79;99381.81;4375046;32;33773;-88
2024/01/25 05:17:19;;;;;;;;;;;;;;;7.77;61.35;99373.53;4377568;32;33948;-89
2024/01/25 05:19:46;;;;;;;;;;;;;;;7.92;60.94;99372.19;4381043;32;35337;-87
2024/01/25 05:22:14;;;;;;;;;;;;;;;7.95;60.72;99382.59;4385916;32;34060;-93
2024/01/25 05:24:41;;;;;;;;;;;;;;;8.10;59.94;99366.63;4377073;32;32883;-92
2024/01/25 05:27:09;;;;;;;;;;;;;;;7.97;60.11;99376.63;4375570;32;33763;-88
2024/01/25 05:29:36;;;;;;;;;;;;;;;7.84;60.70;99378.84;4376380;32;34013;-88
2024/01/25 05:32:03;;;;;;;;;;;;;;;7.62;61.61;99375.69;4376617;32;33722;-87
2024/01/25 05:34:32;;;;;;;;;;;;;;;7.76;61.48;99386.38;4375928;32;33348;-86
2024/01/25 05:37:00;;;;;;;;;;;;;;;7.93;60.91;99390.28;4376123;32;33942;-88
2024/01/25 05:39:27;;;;;;;;;;;;;;;7.95;60.73;99377.41;4376307;32;34187;-87
2024/01/25 05:41:55;;;;;;;;;;;;;;;7.99;60.93;99368.91;4376205;32;34384;-91
2024/01/25 05:44:22;;;;;;;;;;;;;;;7.79;61.54;99384.75;4379546;32;33521;-89
2024/01/25 05:46:49;;;;;;;;;;;;;;;8.03;61.05;99391.41;4377232;32;34075;-90
2024/01/25 05:49:16;;;;;;;;;;;;;;;7.96;61.07;99384.34;4376150;32;35360;-88
2024/01/25 05:51:44;;;;;;;;;;;;;;;7.85;61.53;99385.78;4372894;32;34209;-86
2024/01/25 05:54:11;;;;;;;;;;;;;;;7.62;62.33;99373.12;4360750;32;34190;-87
2024/01/25 05:56:39;;;;;;;;;;;;;;;7.98;61.20;99383.53;4374174;32;33981;-86
2024/01/25 05:59:06;;;;;;;;;;;;;;;7.70;62.14;99381.06;4375740;32;34037;-88
2024/01/25 06:01:33;;;;;;;;;;;;;;;7.64;62.38;99365.41;4374978;32;33997;-87
2024/01/25 06:04:00;;;;;;;;;;;;;;;7.43;63.10;99358.81;4373045;32;33764;-87
2024/01/25 06:06:28;;;;;;;;;;;;;;;7.60;62.60;99369.59;4376065;32;34287;-91
2024/01/25 06:08:55;;;;;;;;;;;;;;;7.46;62.90;99352.84;4362086;32;34304;-89
2024/01/25 06:11:37;;;;;;;;;;;;;;;7.48;62.99;99353.78;4369575;32;35104;-87
2024/01/25 06:14:05;;;;;;;;;;;;;;;7.61;62.36;99363.59;4375315;32;33361;-87
2024/01/25 06:16:33;;;;;;;;;;;;;;;7.67;62.25;99356.03;4367164;32;35042;-88
2024/01/25 06:19:02;;;;;;;;;;;;;;;7.46;62.72;99346.03;4375839;32;34221;-88
2024/01/25 06:21:29;;;;;;;;;;;;;;;7.54;62.46;99362.56;4387876;32;34300;-89
2024/01/25 06:23:57;;;;;;;;;;;;;;;7.41;62.63;99357.03;4376522;32;33401;-86
2024/01/25 06:26:24;;;;;;;;;;;;;;;7.60;61.93;99342.94;4376048;32;35021;-87
2024/01/25 06:28:51;;;;;;;;;;;;;;;7.69;61.20;99354.38;4376428;32;34098;-87
2024/01/25 06:31:18;;;;;;;;;;;;;;;7.54;61.60;99359.13;4378667;32;34152;-86
2024/01/25 06:33:50;;;;;;;;;;;;;;;7.53;61.52;99349.62;4376318;32;33235;-86
2024/01/25 06:36:18;;;;;;;;;;;;;;;7.89;60.38;99343.72;4376443;32;34117;-87
2024/01/25 06:38:46;;;;;;;;;;;;;;;7.74;60.70;99351.94;4376470;32;34302;-87
2024/01/25 06:41:13;;;;;;;;;;;;;;;7.91;60.12;99345.47;4380430;32;34991;-86
2024/01/25 06:43:41;;;;;;;;;;;;;;;7.87;59.82;99350.53;4374473;32;33357;-87
2024/01/25 06:46:08;;;;;;;;;;;;;;;7.84;59.84;99368.50;4375923;32;35007;-87
2024/01/25 06:48:35;;;;;;;;;;;;;;;7.80;60.38;99362.38;4375957;32;34358;-82
2024/01/25 06:51:03;;;;;;;;;;;;;;;7.86;59.85;99356.53;4374966;32;33993;-87
2024/01/25 06:53:31;;;;;;;;;;;;;;;7.60;60.66;99373.88;4352180;32;33194;-85
2024/01/25 06:55:58;;;;;;;;;;;;;;;7.92;60.12;99348.97;4373637;32;33720;-86
2024/01/25 06:58:26;;;;;;;;;;;;;;;7.88;59.65;99341.94;4374880;32;34675;-85
2024/01/25 07:00:54;;;;;;;;;;;;;;;7.61;60.13;99345.53;4366636;32;34263;-86
2024/01/25 07:03:22;;;;;;;;;;;;;;;7.92;59.13;99341.22;4361948;32;33484;-86
2024/01/25 07:05:50;;;;;;;;;;;;;;;8.00;58.78;99332.84;4375698;32;34950;-85
2024/01/25 07:08:18;;;;;;;;;;;;;;;8.07;58.85;99341.62;4375397;32;34078;-85
2024/01/25 07:10:45;;;;;;;;;;;;;;;7.92;58.80;99331.78;4377602;32;33269;-87
2024/01/25 07:13:12;;;;;;;;;;;;;;;7.89;59.31;99346.28;4376766;32;34135;-87
2024/01/25 07:15:41;;;;;;;;;;;;;;;7.74;59.28;99363.13;4350723;32;35032;-87
2024/01/25 07:18:08;;;;;;;;;;;;;;;7.90;58.81;99364.41;4375254;32;35162;-88
2024/01/25 07:20:36;;;;;;;;;;;;;;;7.87;58.16;99361.72;4375699;32;35168;-93
2024/01/25 07:23:03;;;;;;;;;;;;;;;7.80;58.30;99368.47;4377678;32;34329;-93
2024/01/25 07:25:31;;;;;;;;;;;;;;;7.98;58.15;99362.88;4374976;32;33985;-81
2024/01/25 07:27:58;;;;;;;;;;;;;;;7.92;57.94;99361.88;4376097;32;35122;-86
2024/01/25 07:30:26;;;;;;;;;;;;;;;8.13;57.40;99338.31;4362353;32;34974;-87
2024/01/25 07:32:53;;;;;;;;;;;;;;;7.95;58.37;99355.06;4376279;32;33238;-87
2024/01/25 07:35:20;;;;;;;;;;;;;;;7.95;58.39;99341.28;4373786;32;34174;-87
2024/01/25 07:37:48;;;;;;;;;;;;;;;7.91;58.27;99344.63;4376068;32;33756;-87
2024/01/25 07:40:15;;;;;;;;;;;;;;;8.03;58.09;99324.28;4373796;32;33983;-94
2024/01/25 07:42:42;;;;;;;;;;;;;;;7.98;58.02;99329.31;4376006;32;32734;-86
2024/01/25 07:45:10;;;;;;;;;;;;;;;7.89;58.21;99323.94;4376055;32;34099;-85
2024/01/25 07:47:37;;;;;;;;;;;;;;;7.81;58.41;99309.97;4375011;32;35394;-87
2024/01/25 07:50:04;;;;;;;;;;;;;;;7.97;57.97;99304.34;4376195;32;34061;-93
2024/01/25 07:52:32;;;;;;;;;;;;;;;8.25;56.97;99295.56;4374446;32;33820;-88
2024/01/25 07:54:59;;;;;;;;;;;;;;;7.97;56.99;99319.84;4375806;32;34812;-91
2024/01/25 07:57:30;;;;;;;;;;;;;;;8.19;55.87;99300.59;4375877;32;34293;-87
2024/01/25 07:59:58;;;;;;;;;;;;;;;8.38;55.46;99308.81;4374788;32;34115;-86
2024/01/25 08:02:25;;;;;;;;;;;;;;;8.19;55.62;99326.41;4375693;32;33098;-87
2024/01/25 08:04:53;;;;;;;;;;;;;;;8.40;54.85;99345.87;4375702;32;34160;-89
2024/01/25 08:07:21;;;;;;;;;;;;;;;8.35;55.27;99357.78;4375494;32;34191;-88
2024/01/25 08:09:51;;;;;;;;;;;;;;;8.47;55.19;99369.31;4374476;32;34285;-88
2024/01/25 08:12:19;;;;;;;;;;;;;;;8.63;54.63;99375.72;4375235;32;33461;-89
2024/01/25 08:14:46;;;;;;;;;;;;;;;8.44;55.04;99370.94;4374768;32;34003;-88
2024/01/25 08:17:13;;;;;;;;;;;;;;;8.41;55.64;99373.47;4375695;32;34460;-87
2024/01/25 08:19:41;;;;;;;;;;;;;;;8.82;54.24;99364.09;4375814;32;33737;-87
2024/01/25 08:22:09;;;;;;;;;;;;;;;8.55;54.99;99385.00;4375479;32;32409;-87
2024/01/25 08:24:38;;;;;;;;;;;;;;;8.72;55.00;99382.84;4375311;32;33733;-90
2024/01/25 08:27:07;;;;;;;;;;;;;;;8.41;55.70;99378.63;4375472;32;34329;-87
2024/01/25 08:29:35;;;;;;;;;;;;;;;8.64;55.57;99385.25;4375067;32;34201;-85
2024/01/25 08:32:03;;;;;;;;;;;;;;;8.68;55.26;99389.66;4375900;32;34410;-87
2024/01/25 08:34:30;;;;;;;;;;;;;;;8.66;55.51;99380.97;4374577;32;34704;-94
2024/01/25 08:36:58;;;;;;;;;;;;;;;8.73;55.39;99393.22;4374968;32;34964;-86
2024/01/25 08:39:25;;;;;;;;;;;;;;;9.03;54.81;99379.25;4378978;32;34046;-86
2024/01/25 08:41:53;;;;;;;;;;;;;;;8.85;54.93;99379.69;4372083;32;33353;-89
2024/01/25 08:44:20;;;;;;;;;;;;;;;8.91;55.32;99376.37;4373891;32;34203;-86
2024/01/25 08:46:47;;;;;;;;;;;;;;;8.84;55.03;99402.94;4375331;32;35316;-86
2024/01/25 08:49:15;;;;;;;;;;;;;;;8.73;55.24;99413.00;4375325;32;35082;-87
2024/01/25 08:51:42;;;;;;;;;;;;;;;8.80;55.12;99395.94;4371688;32;34107;-87
2024/01/25 08:54:09;;;;;;;;;;;;;;;9.07;54.44;99391.41;4373943;32;33988;-87
2024/01/25 08:56:37;;;;;;;;;;;;;;;8.99;54.44;99421.37;4373762;32;34185;-87
2024/01/25 08:59:04;;;;;;;;;;;;;;;8.84;54.59;99382.25;4373440;32;34792;-87
2024/01/25 09:01:31;;;;;;;;;;;;;;;9.11;53.50;99380.28;4374153;32;33412;-88
2024/01/25 09:04:02;;;;;;;;;;;;;;;8.97;53.60;99417.88;4374010;32;35088;-86
2024/01/25 09:06:30;;;;;;;;;;;;;;;9.08;53.27;99403.47;4374225;32;34249;-86
2024/01/25 09:08:57;;;;;;;;;;;;;;;8.84;54.04;99415.88;4375274;32;34802;-86
2024/01/25 09:11:25;;;;;;;;;;;;;;;8.97;53.90;99410.12;4374990;32;32892;-87
2024/01/25 09:13:52;;;;;;;;;;;;;;;8.85;54.78;99402.09;4374292;32;34017;-87
2024/01/25 09:16:20;;;;;;;;;;;;;;;9.11;54.37;99436.31;4366890;32;33888;-94
2024/01/25 09:18:47;;;;;;;;;;;;;;;8.98;54.25;99417.06;4361382;32;34379;-95
2024/01/25 09:21:15;;;;;;;;;;;;;;;8.98;54.36;99414.47;4354605;32;33405;-87
2024/01/25 09:23:42;;;;;;;;;;;;;;;9.04;54.69;99419.78;4365148;32;34845;-87
2024/01/25 09:26:10;;;;;;;;;;;;;;;8.94;54.08;99439.38;4363234;32;35064;-86
2024/01/25 09:28:37;;;;;;;;;;;;;;;9.27;53.63;99441.84;4373913;32;34485;-87
2024/01/25 09:31:04;;;;;;;;;;;;;;;9.01;54.03;99438.66;4374008;32;33769;-87
2024/01/25 09:33:34;;;;;;;;;;;;;;;9.39;53.17;99437.78;4374211;32;34363;-88
2024/01/25 09:36:01;;;;;;;;;;;;;;;9.59;52.52;99436.53;4374091;32;34789;-90
2024/01/25 09:38:29;;;;;;;;;;;;;;;9.33;53.64;99417.84;4374664;32;35007;-87
2024/01/25 09:40:57;;;;;;;;;;;;;;;9.30;53.09;99427.25;4372437;32;33322;-87
2024/01/25 09:43:24;;;;;;;;;;;;;;;9.24;52.10;99420.22;4371090;32;33873;-87
2024/01/25 09:45:56;;;;;;;;;;;;;;;9.30;52.38;99416.91;4374563;32;34307;-86
2024/01/25 09:48:23;;;;;;;;;;;;;;;9.39;51.01;99428.31;4373185;32;34672;-88
2024/01/25 09:50:52;;;;;;;;;;;;;;;9.15;51.39;99427.78;4374638;32;33351;-87
2024/01/25 09:53:22;;;;;;;;;;;;;;;9.42;51.05;99417.16;4376128;32;34295;-96
2024/01/25 09:56:09;;;;;;;;;;;;;;;9.41;51.17;99426.62;4375323;32;34366;-89
2024/01/25 09:58:38;;;;;;;;;;;;;;;9.58;50.62;99426.12;4376195;32;34711;-87
2024/01/25 10:01:10;;;;;;;;;;;;;;;9.53;50.91;99423.44;4375297;32;34235;-87
2024/01/25 10:03:40;;;;;;;;;;;;;;;9.53;51.32;99417.38;4373372;32;33865;-95
2024/01/25 10:06:08;;;;;;;;;;;;;;;9.53;50.75;99414.81;4377007;32;34351;-82
2024/01/25 10:08:35;;;;;;;;;;;;;;;9.56;50.79;99428.69;4376347;32;34326;-87
2024/01/25 10:11:03;;;;;;;;;;;;;;;9.42;51.12;99402.50;4376674;32;33450;-87
2024/01/25 10:13:30;;;;;;;;;;;;;;;9.41;51.62;99426.62;4375837;32;34976;-87
2024/01/25 10:15:58;;;;;;;;;;;;;;;9.51;51.80;99427.72;4375153;32;34497;-90
2024/01/25 10:18:25;;;;;;;;;;;;;;;9.52;51.39;99406.16;4376527;32;33957;-87
2024/01/25 10:20:57;;;;;;;;;;;;;;;9.92;50.11;99427.66;4373409;32;34433;-90
2024/01/25 10:23:25;;;;;;;;;;;;;;;9.91;49.03;99419.03;4375951;32;34228;-87
2024/01/25 10:25:53;;;;;;;;;;;;;;;9.81;49.70;99416.22;4376664;32;33945;-86
2024/01/25 10:28:21;;;;;;;;;;;;;;;10.12;49.58;99430.66;4376387;32;34924;-87
2024/01/25 10:30:48;;;;;;;;;;;;;;;9.86;49.40;99407.72;4375305;32;33228;-79
2024/01/25 10:33:16;;;;;;;;;;;;;;;9.63;48.77;99391.72;4375285;32;35058;-88
2024/01/25 10:35:49;;;;;;;;;;;;;;;9.83;49.07;99406.78;4363070;32;33459;-87
2024/01/25 10:38:17;;;;;;;;;;;;;;;9.67;48.77;99409.06;4374537;32;35238;-85
2024/01/25 10:40:46;;;;;;;;;;;;;;;9.77;49.64;99397.16;4381786;32;33541;-85
2024/01/25 10:43:16;;;;;;;;;;;;;;;9.96;49.32;99413.94;4363207;32;34931;-95
2024/01/25 10:45:44;;;;;;;;;;;;;;;9.65;49.63;99396.94;4391413;32;35183;-86
2024/01/25 10:48:11;;;;;;;;;;;;;;;9.63;50.00;99399.50;4377444;32;33066;-85
2024/01/25 10:50:39;;;;;;;;;;;;;;;9.67;49.47;99388.34;4377633;32;33618;-85
2024/01/25 10:53:07;;;;;;;;;;;;;;;9.62;49.02;99396.84;4391340;32;34057;-86
2024/01/25 10:55:34;;;;;;;;;;;;;;;9.62;48.66;99387.41;4384185;32;33809;-83
2024/01/25 10:58:02;;;;;;;;;;;;;;;9.37;49.24;99373.06;4376083;32;35023;-85
2024/01/25 11:00:31;;;;;;;;;;;;;;;9.53;49.39;99407.03;4376688;32;34251;-92
2024/01/25 11:02:58;;;;;;;;;;;;;;;9.58;49.03;99424.41;4362228;32;33880;-94
2024/01/25 11:05:44;;;;;;;;;;;;;;;9.60;49.70;99391.66;4375758;32;35310;-88
2024/01/25 11:08:19;;;;;;;;;;;;;;;9.57;49.47;99393.31;4376299;32;34756;-96
2024/01/25 11:10:50;;;;;;;;;;;;;;;9.37;49.48;99382.56;4362878;32;33982;-87
2024/01/25 11:13:23;;;;;;;;;;;;;;;9.48;47.91;99373.31;4363218;32;35255;-85
2024/01/25 11:15:50;;;;;;;;;;;;;;;9.46;48.17;99386.19;4374733;32;35130;-80
2024/01/25 11:18:17;;;;;;;;;;;;;;;9.59;47.72;99395.09;4375006;32;34917;-91
2024/01/25 11:20:46;;;;;;;;;;;;;;;9.56;48.37;99395.03;4360955;32;32234;-88
2024/01/25 11:23:15;;;;;;;;;;;;;;;9.46;48.15;99406.03;4373700;32;34425;-87
2024/01/25 11:25:44;;;;;;;;;;;;;;;9.66;48.71;99388.31;4374717;32;34271;-86
2024/01/25 11:28:13;;;;;;;;;;;;;;;9.42;48.39;99376.63;4375095;32;34296;-83
2024/01/25 11:30:40;;;;;;;;;;;;;;;9.34;49.03;99377.31;4374668;32;33307;-83
2024/01/25 11:33:08;;;;;;;;;;;;;;;9.39;48.89;99404.16;4365463;32;34968;-84
2024/01/25 11:35:36;;;;;;;;;;;;;;;9.61;49.13;99370.09;4365159;32;35271;-86
2024/01/25 11:38:04;;;;;;;;;;;;;;;9.39;49.71;99386.03;4366235;32;34598;-86
2024/01/25 11:40:31;;;;;;;;;;;;;;;9.66;48.46;99396.97;4377783;32;33146;-92
2024/01/25 11:43:06;;;;;;;;;;;;;;;9.47;48.91;99397.41;4370149;32;34288;-88
2024/01/25 11:45:34;;;;;;;;;;;;;;;9.50;49.69;99405.25;4363051;32;34412;-82
2024/01/25 11:48:01;;;;;;;;;;;;;;;9.68;49.34;99407.34;4374685;32;34914;-86
2024/01/25 11:50:29;;;;;;;;;;;;;;;9.60;49.53;99412.38;4375954;32;34277;-88
2024/01/25 11:52:57;;;;;;;;;;;;;;;9.64;49.07;99387.41;4376291;32;34140;-86
2024/01/25 11:55:24;;;;;;;;;;;;;;;9.20;49.84;99396.00;4383514;32;35265;-86
2024/01/25 11:57:53;;;;;;;;;;;;;;;9.60;49.03;99389.06;4377361;32;34920;-87
2024/01/25 12:00:20;;;;;;;;;;;;;;;9.43;49.30;99399.09;4390943;32;33151;-87
2024/01/25 12:02:48;;;;;;;;;;;;;;;9.44;48.54;99394.78;4388875;32;33896;-87
2024/01/25 12:05:15;;;;;;;;;;;;;;;9.54;48.47;99395.84;4376052;32;34106;-83
2024/01/25 12:07:42;;;;;;;;;;;;;;;9.16;49.12;99394.19;4375908;32;33488;-86
2024/01/25 12:10:10;;;;;;;;;;;;;;;9.17;49.30;99402.84;4374555;32;34156;-85
2024/01/25 12:12:38;;;;;;;;;;;;;;;9.30;49.14;99411.72;4374220;32;35079;-87
2024/01/25 12:15:06;;;;;;;;;;;;;;;9.39;48.28;99414.50;4361754;32;34476;-82
2024/01/25 12:17:36;;;;;;;;;;;;;;;9.20;48.18;99421.84;4375779;32;34044;-82
2024/01/25 12:20:03;;;;;;;;;;;;;;;9.37;47.93;99408.44;4376234;32;33549;-86
2024/01/25 12:22:35;;;;;;;;;;;;;;;9.44;46.92;99415.50;4374598;32;35222;-83
2024/01/25 12:25:08;;;;;;;;;;;;;;;9.44;47.38;99412.91;4374396;32;34756;-86
2024/01/25 12:27:37;;;;;;;;;;;;;;;9.14;47.73;99432.09;4361401;32;35450;-91
2024/01/25 12:30:04;;;;;;;;;;;;;;;9.19;47.09;99422.69;4373858;32;33471;-79
2024/01/25 12:32:32;;;;;;;;;;;;;;;9.30;47.04;99438.47;4382599;32;34881;-84
2024/01/25 12:35:03;;;;;;;;;;;;;;;9.46;47.12;99425.00;4377600;32;34916;-87
2024/01/25 12:37:31;;;;;;;;;;;;;;;9.27;47.20;99425.47;4368510;32;34425;-87
2024/01/25 12:39:58;;;;;;;;;;;;;;;9.21;47.84;99441.72;4375290;32;33663;-87
2024/01/25 12:42:26;;;;;;;;;;;;;;;9.35;47.16;99413.56;4373822;32;33843;-84
2024/01/25 12:44:56;;;;;;;;;;;;;;;9.47;46.75;99415.53;4375283;32;35144;-85
2024/01/25 12:47:24;;;;;;;;;;;;;;;9.41;46.90;99402.47;4375004;32;34168;-93
2024/01/25 12:49:51;;;;;;;;;;;;;;;9.40;47.25;99413.69;4383865;32;33277;-84
2024/01/25 12:52:19;;;;;;;;;;;;;;;9.20;47.00;99401.16;4385847;32;34333;-87
2024/01/25 12:54:46;;;;;;;;;;;;;;;9.25;46.76;99406.47;4382801;32;34441;-87
2024/01/25 12:57:14;;;;;;;;;;;;;;;9.37;47.07;99395.50;4374851;32;35159;-87
2024/01/25 12:59:41;;;;;;;;;;;;;;;9.52;46.98;99393.22;4374631;32;33600;-89
2024/01/25 13:02:09;;;;;;;;;;;;;;;9.43;47.16;99400.78;4364281;32;33903;-81